sensor_id;sensor_type;location;lat;lon;timestamp;pressure;altitude;pressure_sealevel;temperature
67515;BMP280;60646;55.802;37.032;2024-02-26T00:01:39;100679.88;;;5.25
67515;BMP280;60646;55.802;37.032;2024-02-26T00:04:05;100681.47;;;5.22
67515;BMP280;60646;55.802;37.032;2024-02-26T00:06:32;100681.91;;;5.20
67515;BMP280;60646;55.802;37.032;2024-02-26T00:08:58;100684.53;;;5.20
67515;BMP280;60646;55.802;37.032;2024-02-26T00:11:24;100686.03;;;5.22
67515;BMP280;60646;55.802;37.032;2024-02-26T00:13:49;100666.06;;;5.01
67515;BMP280;60646;55.802;37.032;2024-02-26T00:16:15;100665.47;;;5.09
67515;BMP280;60646;55.802;37.032;2024-02-26T00:18:41;100665.81;;;5.11
67515;BMP280;60646;55.802;37.032;2024-02-26T00:21:07;100674.09;;;5.13
67515;BMP280;60646;55.802;37.032;2024-02-26T00:23:33;100675.59;;;5.14
67515;BMP280;60646;55.802;37.032;2024-02-26T00:25:58;100665.91;;;5.08
67515;BMP280;60646;55.802;37.032;2024-02-26T00:28:24;100655.75;;;5.06
67515;BMP280;60646;55.802;37.032;2024-02-26T00:30:50;100657.06;;;4.98
67515;BMP280;60646;55.802;37.032;2024-02-26T00:33:22;100662.84;;;5.09
67515;BMP280;60646;55.802;37.032;2024-02-26T00:35:48;100678.56;;;5.16
67515;BMP280;60646;55.802;37.032;2024-02-26T00:38:15;100687.50;;;5.22
67515;BMP280;60646;55.802;37.032;2024-02-26T00:40:40;100659.88;;;5.07
67515;BMP280;60646;55.802;37.032;2024-02-26T00:43:07;100663.19;;;5.11
67515;BMP280;60646;55.802;37.032;2024-02-26T00:45:33;100661.03;;;5.06
67515;BMP280;60646;55.802;37.032;2024-02-26T00:47:59;100653.94;;;5.03
67515;BMP280;60646;55.802;37.032;2024-02-26T00:50:33;100629.56;;;4.92
67515;BMP280;60646;55.802;37.032;2024-02-26T00:53:00;100670.22;;;5.18
67515;BMP280;60646;55.802;37.032;2024-02-26T00:55:25;100651.91;;;5.07
67515;BMP280;60646;55.802;37.032;2024-02-26T00:57:51;100669.47;;;5.17
67515;BMP280;60646;55.802;37.032;2024-02-26T01:00:17;100653.94;;;5.03
67515;BMP280;60646;55.802;37.032;2024-02-26T01:02:43;100639.03;;;4.93
67515;BMP280;60646;55.802;37.032;2024-02-26T01:05:13;100642.69;;;4.99
67515;BMP280;60646;55.802;37.032;2024-02-26T01:07:39;100669.88;;;5.16
67515;BMP280;60646;55.802;37.032;2024-02-26T01:10:06;100641.97;;;4.95
67515;BMP280;60646;55.802;37.032;2024-02-26T01:12:33;100675.59;;;5.14
67515;BMP280;60646;55.802;37.032;2024-02-26T01:15:01;100639.34;;;4.95
67515;BMP280;60646;55.802;37.032;2024-02-26T01:17:26;100649.78;;;5.02
67515;BMP280;60646;55.802;37.032;2024-02-26T01:19:52;100639.28;;;4.99
67515;BMP280;60646;55.802;37.032;2024-02-26T01:22:19;100666.56;;;5.12
67515;BMP280;60646;55.802;37.032;2024-02-26T01:24:46;100671.13;;;5.11
67515;BMP280;60646;55.802;37.032;2024-02-26T01:27:12;100637.94;;;4.91
67515;BMP280;60646;55.802;37.032;2024-02-26T01:29:40;100650.94;;;5.01
67515;BMP280;60646;55.802;37.032;2024-02-26T01:32:05;100656.91;;;5.05
67515;BMP280;60646;55.802;37.032;2024-02-26T01:34:31;100659.22;;;5.03
67515;BMP280;60646;55.802;37.032;2024-02-26T01:36:57;100646.97;;;4.93
67515;BMP280;60646;55.802;37.032;2024-02-26T01:39:23;100642.81;;;4.92
67515;BMP280;60646;55.802;37.032;2024-02-26T01:41:49;100646.56;;;4.95
67515;BMP280;60646;55.802;37.032;2024-02-26T01:44:15;100629.34;;;4.87
67515;BMP280;60646;55.802;37.032;2024-02-26T01:46:41;100633.88;;;4.86
67515;BMP280;60646;55.802;37.032;2024-02-26T01:49:11;100661.63;;;4.98
67515;BMP280;60646;55.802;37.032;2024-02-26T01:51:39;100645.97;;;4.87
67515;BMP280;60646;55.802;37.032;2024-02-26T01:54:07;100653.41;;;4.92
67515;BMP280;60646;55.802;37.032;2024-02-26T01:56:35;100648.84;;;4.93
67515;BMP280;60646;55.802;37.032;2024-02-26T01:59:02;100632.47;;;4.82
67515;BMP280;60646;55.802;37.032;2024-02-26T02:01:29;100664.56;;;5.00
67515;BMP280;60646;55.802;37.032;2024-02-26T02:03:59;100661.22;;;4.99
67515;BMP280;60646;55.802;37.032;2024-02-26T02:06:26;100639.19;;;4.86
67515;BMP280;60646;55.802;37.032;2024-02-26T02:08:56;100629.44;;;4.83
67515;BMP280;60646;55.802;37.032;2024-02-26T02:11:23;100621.97;;;4.78
67515;BMP280;60646;55.802;37.032;2024-02-26T02:13:49;100635.47;;;4.84
67515;BMP280;60646;55.802;37.032;2024-02-26T02:16:15;100657.66;;;4.90
67515;BMP280;60646;55.802;37.032;2024-02-26T02:18:41;100639.34;;;4.79
67515;BMP280;60646;55.802;37.032;2024-02-26T02:21:07;100644.47;;;4.86
67515;BMP280;60646;55.802;37.032;2024-02-26T02:23:33;100624.34;;;4.72
67515;BMP280;60646;55.802;37.032;2024-02-26T02:25:59;100641.50;;;4.84
67515;BMP280;60646;55.802;37.032;2024-02-26T02:28:26;100640.56;;;4.91
67515;BMP280;60646;55.802;37.032;2024-02-26T02:30:53;100658.69;;;4.92
67515;BMP280;60646;55.802;37.032;2024-02-26T02:33:19;100625.09;;;4.73
67515;BMP280;60646;55.802;37.032;2024-02-26T02:35:46;100653.41;;;4.92
67515;BMP280;60646;55.802;37.032;2024-02-26T02:38:12;100625.72;;;4.81
67515;BMP280;60646;55.802;37.032;2024-02-26T02:40:37;100627.13;;;4.85
67515;BMP280;60646;55.802;37.032;2024-02-26T02:43:03;100623.38;;;4.83
67515;BMP280;60646;55.802;37.032;2024-02-26T02:45:30;100623.47;;;4.79
67515;BMP280;60646;55.802;37.032;2024-02-26T02:47:56;100609.56;;;4.75
67515;BMP280;60646;55.802;37.032;2024-02-26T02:50:22;100622.22;;;4.84
67515;BMP280;60646;55.802;37.032;2024-02-26T02:52:48;100631.19;;;4.90
67515;BMP280;60646;55.802;37.032;2024-02-26T02:55:14;100600.13;;;4.74
67515;BMP280;60646;55.802;37.032;2024-02-26T02:57:39;100612.78;;;4.83
67515;BMP280;60646;55.802;37.032;2024-02-26T03:00:10;100611.16;;;4.89
67515;BMP280;60646;55.802;37.032;2024-02-26T03:02:37;100606.44;;;4.80
67515;BMP280;60646;55.802;37.032;2024-02-26T03:05:04;100614.22;;;4.87
67515;BMP280;60646;55.802;37.032;2024-02-26T03:07:30;100612.78;;;4.83
67515;BMP280;60646;55.802;37.032;2024-02-26T03:09:55;100593.44;;;4.69
67515;BMP280;60646;55.802;37.032;2024-02-26T03:12:22;100616.84;;;4.87
67515;BMP280;60646;55.802;37.032;2024-02-26T03:14:48;100629.94;;;4.94
67515;BMP280;60646;55.802;37.032;2024-02-26T03:17:14;100597.84;;;4.76
67515;BMP280;60646;55.802;37.032;2024-02-26T03:19:40;100601.28;;;4.73
67515;BMP280;60646;55.802;37.032;2024-02-26T03:22:06;100602.50;;;4.72
67515;BMP280;60646;55.802;37.032;2024-02-26T03:24:32;100620.47;;;4.77
67515;BMP280;60646;55.802;37.032;2024-02-26T03:26:58;100611.38;;;4.78
67515;BMP280;60646;55.802;37.032;2024-02-26T03:29:24;100609.16;;;4.77
67515;BMP280;60646;55.802;37.032;2024-02-26T03:31:50;100607.78;;;4.72
67515;BMP280;60646;55.802;37.032;2024-02-26T03:34:16;100613.06;;;4.72
67515;BMP280;60646;55.802;37.032;2024-02-26T03:36:43;100614.47;;;4.77
67515;BMP280;60646;55.802;37.032;2024-02-26T03:39:10;100599.56;;;4.66
67515;BMP280;60646;55.802;37.032;2024-02-26T03:41:36;100605.13;;;4.72
67515;BMP280;60646;55.802;37.032;2024-02-26T03:44:02;100612.22;;;4.75
67515;BMP280;60646;55.802;37.032;2024-02-26T03:46:28;100597.81;;;4.60
67515;BMP280;60646;55.802;37.032;2024-02-26T03:48:54;100615.19;;;4.77
67515;BMP280;60646;55.802;37.032;2024-02-26T03:51:20;100604.88;;;4.66
67515;BMP280;60646;55.802;37.032;2024-02-26T03:53:46;100616.19;;;4.67
67515;BMP280;60646;55.802;37.032;2024-02-26T03:56:12;100616.19;;;4.67
67515;BMP280;60646;55.802;37.032;2024-02-26T03:58:41;100618.00;;;4.70
67515;BMP280;60646;55.802;37.032;2024-02-26T04:01:08;100593.66;;;4.59
67515;BMP280;60646;55.802;37.032;2024-02-26T04:03:35;100598.63;;;4.57
67515;BMP280;60646;55.802;37.032;2024-02-26T04:06:02;100628.09;;;4.75
67515;BMP280;60646;55.802;37.032;2024-02-26T04:08:28;100619.81;;;4.73
67515;BMP280;60646;55.802;37.032;2024-02-26T04:10:55;100617.34;;;4.66
67515;BMP280;60646;55.802;37.032;2024-02-26T04:13:21;100600.94;;;4.55
67515;BMP280;60646;55.802;37.032;2024-02-26T04:15:47;100614.31;;;4.67
67515;BMP280;60646;55.802;37.032;2024-02-26T04:18:13;100596.84;;;4.54
67515;BMP280;60646;55.802;37.032;2024-02-26T04:23:55;100603.84;;;4.60
67515;BMP280;60646;55.802;37.032;2024-02-26T04:26:21;100611.31;;;4.65
67515;BMP280;60646;55.802;37.032;2024-02-26T04:28:47;100608.06;;;4.58
67515;BMP280;60646;55.802;37.032;2024-02-26T04:31:13;100614.03;;;4.62
67515;BMP280;60646;55.802;37.032;2024-02-26T04:33:39;100612.88;;;4.63
67515;BMP280;60646;55.802;37.032;2024-02-26T04:36:05;100605.09;;;4.56
67515;BMP280;60646;55.802;37.032;2024-02-26T04:38:30;100605.59;;;4.51
67515;BMP280;60646;55.802;37.032;2024-02-26T04:40:56;100612.63;;;4.57
67515;BMP280;60646;55.802;37.032;2024-02-26T04:43:22;100611.13;;;4.56
67515;BMP280;60646;55.802;37.032;2024-02-26T04:45:48;100617.75;;;4.64
67515;BMP280;60646;55.802;37.032;2024-02-26T04:48:14;100610.06;;;4.54
67515;BMP280;60646;55.802;37.032;2024-02-26T04:50:40;100596.66;;;4.45
67515;BMP280;60646;55.802;37.032;2024-02-26T04:53:07;100602.53;;;4.52
67515;BMP280;60646;55.802;37.032;2024-02-26T04:55:33;100594.00;;;4.45
67515;BMP280;60646;55.802;37.032;2024-02-26T04:57:59;100617.09;;;4.60
67515;BMP280;60646;55.802;37.032;2024-02-26T05:00:25;100605.19;;;4.52
67515;BMP280;60646;55.802;37.032;2024-02-26T05:06:33;100603.69;;;4.51
67515;BMP280;60646;55.802;37.032;2024-02-26T05:08:59;100606.22;;;4.55
67515;BMP280;60646;55.802;37.032;2024-02-26T05:11:25;100600.28;;;4.51
67515;BMP280;60646;55.802;37.032;2024-02-26T05:13:51;100607.44;;;4.54
67515;BMP280;60646;55.802;37.032;2024-02-26T05:16:17;100609.53;;;4.59
67515;BMP280;60646;55.802;37.032;2024-02-26T05:18:42;100584.72;;;4.37
67515;BMP280;60646;55.802;37.032;2024-02-26T05:21:08;100601.44;;;4.50
67515;BMP280;60646;55.802;37.032;2024-02-26T05:23:34;100585.88;;;4.36
67515;BMP280;60646;55.802;37.032;2024-02-26T05:26:00;100599.22;;;4.48
67515;BMP280;60646;55.802;37.032;2024-02-26T05:28:26;100608.97;;;4.51
67515;BMP280;60646;55.802;37.032;2024-02-26T05:30:51;100607.16;;;4.48
67515;BMP280;60646;55.802;37.032;2024-02-26T05:33:17;100597.81;;;4.44
67515;BMP280;60646;55.802;37.032;2024-02-26T05:35:43;100608.31;;;4.47
67515;BMP280;60646;55.802;37.032;2024-02-26T05:38:09;100627.25;;;4.62
67515;BMP280;60646;55.802;37.032;2024-02-26T05:40:34;100605.19;;;4.52
67515;BMP280;60646;55.802;37.032;2024-02-26T05:43:00;100600.66;;;4.53
67515;BMP280;60646;55.802;37.032;2024-02-26T05:45:26;100624.53;;;4.65
67515;BMP280;60646;55.802;37.032;2024-02-26T05:47:52;100625.28;;;4.66
67515;BMP280;60646;55.802;37.032;2024-02-26T05:50:18;100599.91;;;4.52
67515;BMP280;60646;55.802;37.032;2024-02-26T05:52:44;100609.16;;;4.60
67515;BMP280;60646;55.802;37.032;2024-02-26T05:55:17;100607.25;;;4.61
67515;BMP280;60646;55.802;37.032;2024-02-26T05:57:43;100600.66;;;4.53
67515;BMP280;60646;55.802;37.032;2024-02-26T06:00:09;100619.31;;;4.62
67515;BMP280;60646;55.802;37.032;2024-02-26T06:02:38;100598.81;;;4.50
67515;BMP280;60646;55.802;37.032;2024-02-26T06:05:05;100594.34;;;4.47
67515;BMP280;60646;55.802;37.032;2024-02-26T06:07:33;100605.94;;;4.53
67515;BMP280;60646;55.802;37.032;2024-02-26T06:09:59;100614.69;;;4.66
67515;BMP280;60646;55.802;37.032;2024-02-26T06:12:38;100642.34;;;4.81
67515;BMP280;60646;55.802;37.032;2024-02-26T06:15:08;100628.09;;;4.75
67515;BMP280;60646;55.802;37.032;2024-02-26T06:17:34;100611.56;;;4.71
67515;BMP280;60646;55.802;37.032;2024-02-26T06:20:00;100630.94;;;4.84
67515;BMP280;60646;55.802;37.032;2024-02-26T06:22:27;100634.97;;;4.89
67515;BMP280;60646;55.802;37.032;2024-02-26T06:24:53;100617.50;;;4.75
67515;BMP280;60646;55.802;37.032;2024-02-26T06:27:18;100639.13;;;4.90
67515;BMP280;60646;55.802;37.032;2024-02-26T06:29:45;100607.66;;;4.76
67515;BMP280;60646;55.802;37.032;2024-02-26T06:32:11;100599.84;;;4.72
67515;BMP280;60646;55.802;37.032;2024-02-26T06:34:37;100610.06;;;4.86
67515;BMP280;60646;55.802;37.032;2024-02-26T06:37:04;100619.66;;;4.96
67515;BMP280;60646;55.802;37.032;2024-02-26T06:39:31;100609.56;;;4.91
67515;BMP280;60646;55.802;37.032;2024-02-26T06:41:58;100634.06;;;5.11
67515;BMP280;60646;55.802;37.032;2024-02-26T06:44:59;100599.63;;;4.95
67515;BMP280;60646;55.802;37.032;2024-02-26T06:47:25;100607.75;;;5.04
67515;BMP280;60646;55.802;37.032;2024-02-26T06:49:51;100599.47;;;5.02
67515;BMP280;60646;55.802;37.032;2024-02-26T06:52:17;100590.44;;;5.00
67515;BMP280;60646;55.802;37.032;2024-02-26T06:54:43;100622.47;;;5.22
67515;BMP280;60646;55.802;37.032;2024-02-26T06:57:10;100600.78;;;5.10
67515;BMP280;60646;55.802;37.032;2024-02-26T06:59:36;100597.81;;;5.08
67515;BMP280;60646;55.802;37.032;2024-02-26T07:02:02;100608.13;;;5.19
67515;BMP280;60646;55.802;37.032;2024-02-26T07:04:28;100597.72;;;5.12
67515;BMP280;60646;55.802;37.032;2024-02-26T07:06:53;100612.28;;;5.20
67515;BMP280;60646;55.802;37.032;2024-02-26T07:09:19;100622.28;;;5.29
67515;BMP280;60646;55.802;37.032;2024-02-26T07:11:45;100627.56;;;5.29
67515;BMP280;60646;55.802;37.032;2024-02-26T07:14:12;100616.63;;;5.27
67515;BMP280;60646;55.802;37.032;2024-02-26T07:16:38;100635.47;;;5.45
67515;BMP280;60646;55.802;37.032;2024-02-26T07:19:04;100607.53;;;5.28
67515;BMP280;60646;55.802;37.032;2024-02-26T07:21:30;100620.75;;;5.44
67515;BMP280;60646;55.802;37.032;2024-02-26T07:23:56;100598.94;;;5.40
67515;BMP280;60646;55.802;37.032;2024-02-26T07:26:22;100603.94;;;5.50
67515;BMP280;60646;55.802;37.032;2024-02-26T07:28:50;100595.97;;;5.50
67515;BMP280;60646;55.802;37.032;2024-02-26T07:31:17;100601.00;;;5.61
67515;BMP280;60646;55.802;37.032;2024-02-26T07:33:43;100605.34;;;5.67
67515;BMP280;60646;55.802;37.032;2024-02-26T07:36:09;100607.59;;;5.69
67515;BMP280;60646;55.802;37.032;2024-02-26T07:38:34;100614.16;;;5.77
67515;BMP280;60646;55.802;37.032;2024-02-26T07:41:02;100628.88;;;5.94
67515;BMP280;60646;55.802;37.032;2024-02-26T07:43:28;100611.22;;;5.88
67515;BMP280;60646;55.802;37.032;2024-02-26T07:45:54;100616.66;;;5.84
67515;BMP280;60646;55.802;37.032;2024-02-26T07:48:21;100603.41;;;5.84
67515;BMP280;60646;55.802;37.032;2024-02-26T07:50:46;100606.91;;;5.94
67515;BMP280;60646;55.802;37.032;2024-02-26T07:53:13;100590.56;;;5.83
67515;BMP280;60646;55.802;37.032;2024-02-26T07:55:39;100604.66;;;5.92
67515;BMP280;60646;55.802;37.032;2024-02-26T07:58:05;100601.09;;;5.99
67515;BMP280;60646;55.802;37.032;2024-02-26T08:00:30;100602.88;;;6.02
67515;BMP280;60646;55.802;37.032;2024-02-26T08:02:56;100597.47;;;6.05
67515;BMP280;60646;55.802;37.032;2024-02-26T08:05:22;100604.06;;;6.13
67515;BMP280;60646;55.802;37.032;2024-02-26T08:07:48;100598.13;;;6.09
67515;BMP280;60646;55.802;37.032;2024-02-26T08:10:14;100603.22;;;6.16
67515;BMP280;60646;55.802;37.032;2024-02-26T08:12:40;100592.81;;;6.09
67515;BMP280;60646;55.802;37.032;2024-02-26T08:15:25;100603.84;;;6.20
67515;BMP280;60646;55.802;37.032;2024-02-26T08:17:50;100612.88;;;6.23
67515;BMP280;60646;55.802;37.032;2024-02-26T08:20:16;100588.75;;;6.17
67515;BMP280;60646;55.802;37.032;2024-02-26T08:22:42;100592.41;;;6.23
67515;BMP280;60646;55.802;37.032;2024-02-26T08:25:08;100581.78;;;6.23
67515;BMP280;60646;55.802;37.032;2024-02-26T08:27:35;100576.47;;;6.23
67515;BMP280;60646;55.802;37.032;2024-02-26T08:30:01;100593.66;;;6.32
67515;BMP280;60646;55.802;37.032;2024-02-26T08:32:29;100580.94;;;6.27
67515;BMP280;60646;55.802;37.032;2024-02-26T08:34:55;100568.63;;;6.20
67515;BMP280;60646;55.802;37.032;2024-02-26T08:37:21;100576.06;;;6.25
67515;BMP280;60646;55.802;37.032;2024-02-26T08:39:47;100591.84;;;6.29
67515;BMP280;60646;55.802;37.032;2024-02-26T08:42:13;100589.63;;;6.27
67515;BMP280;60646;55.802;37.032;2024-02-26T08:44:38;100589.53;;;6.31
67515;BMP280;60646;55.802;37.032;2024-02-26T08:47:04;100590.09;;;6.26
67515;BMP280;60646;55.802;37.032;2024-02-26T08:49:31;100587.94;;;6.20
67515;BMP280;60646;55.802;37.032;2024-02-26T08:51:57;100565.75;;;6.02
67515;BMP280;60646;55.802;37.032;2024-02-26T08:54:22;100594.06;;;6.17
67515;BMP280;60646;55.802;37.032;2024-02-26T08:56:49;100588.75;;;6.17
67515;BMP280;60646;55.802;37.032;2024-02-26T08:59:15;100588.75;;;6.17
67515;BMP280;60646;55.802;37.032;2024-02-26T09:01:42;100586.00;;;6.08
67515;BMP280;60646;55.802;37.032;2024-02-26T09:04:08;100558.00;;;5.95
67515;BMP280;60646;55.802;37.032;2024-02-26T09:06:34;100562.16;;;5.96
67515;BMP280;60646;55.802;37.032;2024-02-26T09:08:59;100583.69;;;6.10
67515;BMP280;60646;55.802;37.032;2024-02-26T09:11:25;100582.84;;;6.13
67515;BMP280;60646;55.802;37.032;2024-02-26T09:13:51;100561.94;;;6.03
67515;BMP280;60646;55.802;37.032;2024-02-26T09:16:17;100595.69;;;6.28
67515;BMP280;60646;55.802;37.032;2024-02-26T09:18:43;100585.38;;;6.30
67515;BMP280;60646;55.802;37.032;2024-02-26T09:21:08;100586.97;;;6.27
67515;BMP280;60646;55.802;37.032;2024-02-26T09:23:34;100584.53;;;6.33
67515;BMP280;60646;55.802;37.032;2024-02-26T09:26:18;100579.34;;;6.29
67515;BMP280;60646;55.802;37.032;2024-02-26T09:28:44;100589.19;;;6.29
67515;BMP280;60646;55.802;37.032;2024-02-26T09:31:11;100598.78;;;6.39
67515;BMP280;60646;55.802;37.032;2024-02-26T09:33:37;100601.63;;;6.44
67515;BMP280;60646;55.802;37.032;2024-02-26T09:36:04;100596.22;;;6.48
67515;BMP280;60646;55.802;37.032;2024-02-26T09:38:48;100587.09;;;6.49
67515;BMP280;60646;55.802;37.032;2024-02-26T09:41:15;100585.34;;;6.55
67515;BMP280;60646;55.802;37.032;2024-02-26T09:44:04;100592.03;;;6.59
67515;BMP280;60646;55.802;37.032;2024-02-26T09:46:30;100579.84;;;6.62
67515;BMP280;60646;55.802;37.032;2024-02-26T09:48:57;100545.44;;;6.46
67515;BMP280;60646;55.802;37.032;2024-02-26T09:51:23;100556.91;;;6.55
67515;BMP280;60646;55.802;37.032;2024-02-26T09:53:52;100555.63;;;6.60
67515;BMP280;60646;55.802;37.032;2024-02-26T09:56:19;100533.75;;;6.56
67515;BMP280;60646;55.802;37.032;2024-02-26T09:58:45;100573.50;;;6.81
67515;BMP280;60646;55.802;37.032;2024-02-26T10:01:17;100565.78;;;6.74
67515;BMP280;60646;55.802;37.032;2024-02-26T10:03:44;100573.09;;;6.83
67515;BMP280;60646;55.802;37.032;2024-02-26T10:06:13;100542.69;;;6.62
67515;BMP280;60646;55.802;37.032;2024-02-26T10:08:39;100574.47;;;6.87
67515;BMP280;60646;55.802;37.032;2024-02-26T10:11:07;100574.47;;;6.87
67515;BMP280;60646;55.802;37.032;2024-02-26T10:13:36;100572.75;;;6.93
67515;BMP280;60646;55.802;37.032;2024-02-26T10:16:03;100558.53;;;6.87
67515;BMP280;60646;55.802;37.032;2024-02-26T10:22:01;100542.59;;;6.87
67515;BMP280;60646;55.802;37.032;2024-02-26T10:24:29;100557.44;;;6.97
67515;BMP280;60646;55.802;37.032;2024-02-26T10:26:55;100557.25;;;7.13
67515;BMP280;60646;55.802;37.032;2024-02-26T10:29:23;100560.50;;;7.17
67515;BMP280;60646;55.802;37.032;2024-02-26T10:31:50;100557.03;;;7.20
67515;BMP280;60646;55.802;37.032;2024-02-26T10:34:17;100543.97;;;7.13
67515;BMP280;60646;55.802;37.032;2024-02-26T10:36:43;100529.66;;;7.11
67515;BMP280;60646;55.802;37.032;2024-02-26T10:39:14;100551.75;;;7.30
67515;BMP280;60646;55.802;37.032;2024-02-26T10:41:41;100563.44;;;7.32
67515;BMP280;60646;55.802;37.032;2024-02-26T10:44:10;100557.28;;;7.35
67515;BMP280;60646;55.802;37.032;2024-02-26T10:46:38;100555.25;;;7.39
67515;BMP280;60646;55.802;37.032;2024-02-26T10:49:04;100549.19;;;7.39
67515;BMP280;60646;55.802;37.032;2024-02-26T10:51:31;100534.06;;;7.36
67515;BMP280;60646;55.802;37.032;2024-02-26T10:53:58;100548.06;;;7.49
67515;BMP280;60646;55.802;37.032;2024-02-26T10:56:28;100538.03;;;7.53
67515;BMP280;60646;55.802;37.032;2024-02-26T10:58:55;100524.81;;;7.40
67515;BMP280;60646;55.802;37.032;2024-02-26T11:01:22;100535.97;;;7.57
67515;BMP280;60646;55.802;37.032;2024-02-26T11:03:53;100534.81;;;7.58
67515;BMP280;60646;55.802;37.032;2024-02-26T11:06:21;100537.03;;;7.59
67515;BMP280;60646;55.802;37.032;2024-02-26T11:09:06;100516.16;;;7.49
67515;BMP280;60646;55.802;37.032;2024-02-26T11:11:34;100514.22;;;7.49
67515;BMP280;60646;55.802;37.032;2024-02-26T11:14:03;100533.78;;;7.64
67515;BMP280;60646;55.802;37.032;2024-02-26T11:16:30;100524.19;;;7.58
67515;BMP280;60646;55.802;37.032;2024-02-26T11:18:57;100518.72;;;7.61
67515;BMP280;60646;55.802;37.032;2024-02-26T11:21:23;100520.66;;;7.61
67515;BMP280;60646;55.802;37.032;2024-02-26T11:24:15;100528.34;;;7.68
67515;BMP280;60646;55.802;37.032;2024-02-26T11:26:55;100522.28;;;7.67
67515;BMP280;60646;55.802;37.032;2024-02-26T11:29:29;100508.38;;;7.63
67515;BMP280;60646;55.802;37.032;2024-02-26T11:31:59;100498.31;;;7.58
67515;BMP280;60646;55.802;37.032;2024-02-26T11:34:25;100518.94;;;7.76
67515;BMP280;60646;55.802;37.032;2024-02-26T11:36:51;100514.75;;;7.66
67515;BMP280;60646;55.802;37.032;2024-02-26T11:39:17;100504.38;;;7.59
67515;BMP280;60646;55.802;37.032;2024-02-26T11:41:43;100527.50;;;7.71
67515;BMP280;60646;55.802;37.032;2024-02-26T11:44:09;100518.00;;;7.61
67515;BMP280;60646;55.802;37.032;2024-02-26T11:46:42;100524.63;;;7.65
67515;BMP280;60646;55.802;37.032;2024-02-26T11:51:52;100518.88;;;7.58
67515;BMP280;60646;55.802;37.032;2024-02-26T11:54:39;100518.88;;;7.58
67515;BMP280;60646;55.802;37.032;2024-02-26T11:57:29;100511.69;;;7.46
67515;BMP280;60646;55.802;37.032;2024-02-26T12:00:17;100499.22;;;7.34
67515;BMP280;60646;55.802;37.032;2024-02-26T12:02:55;100501.75;;;7.37
67515;BMP280;60646;55.802;37.032;2024-02-26T12:05:31;100526.47;;;7.47
67515;BMP280;60646;55.802;37.032;2024-02-26T12:08:16;100526.06;;;7.48
67515;BMP280;60646;55.802;37.032;2024-02-26T12:10:43;100521.13;;;7.38
67515;BMP280;60646;55.802;37.032;2024-02-26T12:13:10;100533.97;;;7.39
67515;BMP280;60646;55.802;37.032;2024-02-26T12:15:44;100527.19;;;7.38
67515;BMP280;60646;55.802;37.032;2024-02-26T12:18:20;100490.00;;;7.16
67515;BMP280;60646;55.802;37.032;2024-02-26T12:20:47;100492.34;;;7.14
67515;BMP280;60646;55.802;37.032;2024-02-26T12:23:16;100506.41;;;7.24
67515;BMP280;60646;55.802;37.032;2024-02-26T12:25:45;100515.75;;;7.29
67515;BMP280;60646;55.802;37.032;2024-02-26T12:28:14;100475.16;;;7.06
67515;BMP280;60646;55.802;37.032;2024-02-26T12:30:40;100521.63;;;7.23
67515;BMP280;60646;55.802;37.032;2024-02-26T12:33:06;100499.41;;;7.17
67515;BMP280;60646;55.802;37.032;2024-02-26T12:35:35;100519.28;;;7.25
67515;BMP280;60646;55.802;37.032;2024-02-26T12:38:02;100512.91;;;7.23
67515;BMP280;60646;55.802;37.032;2024-02-26T12:40:30;100496.16;;;7.13
67515;BMP280;60646;55.802;37.032;2024-02-26T12:42:57;100513.22;;;7.25
67515;BMP280;60646;55.802;37.032;2024-02-26T12:45:25;100502.06;;;7.17
67515;BMP280;60646;55.802;37.032;2024-02-26T12:47:52;100483.13;;;7.06
67515;BMP280;60646;55.802;37.032;2024-02-26T12:50:18;100467.63;;;7.05
67515;BMP280;60646;55.802;37.032;2024-02-26T12:52:46;100512.53;;;7.34
67515;BMP280;60646;55.802;37.032;2024-02-26T12:55:18;100507.50;;;7.36
67515;BMP280;60646;55.802;37.032;2024-02-26T12:57:49;100506.66;;;7.39
67515;BMP280;60646;55.802;37.032;2024-02-26T13:00:21;100507.66;;;7.41
67515;BMP280;60646;55.802;37.032;2024-02-26T13:02:49;100508.00;;;7.43
67515;BMP280;60646;55.802;37.032;2024-02-26T13:05:16;100506.50;;;7.42
67515;BMP280;60646;55.802;37.032;2024-02-26T13:07:42;100487.25;;;7.29
67515;BMP280;60646;55.802;37.032;2024-02-26T13:10:18;100482.06;;;7.25
67515;BMP280;60646;55.802;37.032;2024-02-26T13:12:46;100505.00;;;7.41
67515;BMP280;60646;55.802;37.032;2024-02-26T13:15:17;100502.84;;;7.40
67515;BMP280;60646;55.802;37.032;2024-02-26T13:18:09;100483.03;;;7.19
67515;BMP280;60646;55.802;37.032;2024-02-26T13:20:36;100495.03;;;7.23
67515;BMP280;60646;55.802;37.032;2024-02-26T13:23:06;100506.88;;;7.32
67515;BMP280;60646;55.802;37.032;2024-02-26T13:25:33;100505.53;;;7.27
67515;BMP280;60646;55.802;37.032;2024-02-26T13:28:18;100503.06;;;7.33
67515;BMP280;60646;55.802;37.032;2024-02-26T13:30:52;100515.19;;;7.34
67515;BMP280;60646;55.802;37.032;2024-02-26T13:33:18;100491.34;;;7.21
67515;BMP280;60646;55.802;37.032;2024-02-26T13:35:44;100508.94;;;7.28
67515;BMP280;60646;55.802;37.032;2024-02-26T13:38:11;100483.69;;;7.01
67515;BMP280;60646;55.802;37.032;2024-02-26T13:40:37;100497.78;;;7.11
67515;BMP280;60646;55.802;37.032;2024-02-26T13:43:05;100519.50;;;7.18
67515;BMP280;60646;55.802;37.032;2024-02-26T13:45:34;100503.22;;;7.07
67515;BMP280;60646;55.802;37.032;2024-02-26T13:48:09;100515.28;;;7.08
67515;BMP280;60646;55.802;37.032;2024-02-26T13:50:53;100531.22;;;7.08
67515;BMP280;60646;55.802;37.032;2024-02-26T13:53:20;100520.88;;;7.01
67515;BMP280;60646;55.802;37.032;2024-02-26T13:55:46;100510.19;;;6.92
67515;BMP280;60646;55.802;37.032;2024-02-26T13:58:12;100507.66;;;6.89
67515;BMP280;60646;55.802;37.032;2024-02-26T14:00:39;100509.78;;;6.81
67515;BMP280;60646;55.802;37.032;2024-02-26T14:03:07;100530.75;;;7.01
67515;BMP280;60646;55.802;37.032;2024-02-26T14:05:33;100493.84;;;6.81
67515;BMP280;60646;55.802;37.032;2024-02-26T14:07:59;100486.78;;;6.78
67515;BMP280;60646;55.802;37.032;2024-02-26T14:10:24;100504.19;;;6.79
67515;BMP280;60646;55.802;37.032;2024-02-26T14:12:51;100496.75;;;6.74